sensor_id;sensor_type;location;lat;lon;timestamp;P1;durP1;ratioP1;P2;durP2;ratioP2
70675;SDS011;59069;52.242;20.900;2023-07-31T00:01:54;6.60;;;2.25;;
70675;SDS011;59069;52.242;20.900;2023-07-31T00:04:20;5.77;;;2.13;;
70675;SDS011;59069;52.242;20.900;2023-07-31T00:06:45;5.70;;;2.17;;
70675;SDS011;59069;52.242;20.900;2023-07-31T00:09:11;5.47;;;2.30;;
70675;SDS011;59069;52.242;20.900;2023-07-31T00:11:36;5.40;;;1.90;;
70675;SDS011;59069;52.242;20.900;2023-07-31T00:14:02;7.70;;;2.30;;
70675;SDS011;59069;52.242;20.900;2023-07-31T00:16:27;5.43;;;1.90;;
70675;SDS011;59069;52.242;20.900;2023-07-31T00:18:53;4.60;;;1.70;;
70675;SDS011;59069;52.242;20.900;2023-07-31T00:21:18;5.90;;;1.80;;
70675;SDS011;59069;52.242;20.900;2023-07-31T00:23:43;5.30;;;1.87;;
70675;SDS011;59069;52.242;20.900;2023-07-31T00:26:09;7.07;;;2.60;;
70675;SDS011;59069;52.242;20.900;2023-07-31T00:28:34;7.03;;;2.13;;
70675;SDS011;59069;52.242;20.900;2023-07-31T00:30:59;5.03;;;1.87;;
70675;SDS011;59069;52.242;20.900;2023-07-31T00:33:25;5.07;;;1.88;;
70675;SDS011;59069;52.242;20.900;2023-07-31T00:35:50;5.67;;;1.77;;
70675;SDS011;59069;52.242;20.900;2023-07-31T00:38:16;6.87;;;2.03;;
70675;SDS011;59069;52.242;20.900;2023-07-31T00:40:41;5.83;;;1.87;;
70675;SDS011;59069;52.242;20.900;2023-07-31T00:43:06;5.90;;;2.20;;
70675;SDS011;59069;52.242;20.900;2023-07-31T00:45:32;5.95;;;1.83;;
70675;SDS011;59069;52.242;20.900;2023-07-31T00:47:57;5.33;;;2.00;;
70675;SDS011;59069;52.242;20.900;2023-07-31T00:50:27;5.70;;;2.17;;
70675;SDS011;59069;52.242;20.900;2023-07-31T00:52:53;5.82;;;2.05;;
70675;SDS011;59069;52.242;20.900;2023-07-31T00:55:19;5.93;;;2.10;;
70675;SDS011;59069;52.242;20.900;2023-07-31T00:57:47;7.70;;;2.00;;
70675;SDS011;59069;52.242;20.900;2023-07-31T01:00:13;5.75;;;2.08;;
70675;SDS011;59069;52.242;20.900;2023-07-31T01:02:38;6.70;;;2.10;;
70675;SDS011;59069;52.242;20.900;2023-07-31T01:05:04;6.03;;;2.20;;
70675;SDS011;59069;52.242;20.900;2023-07-31T01:07:45;5.45;;;2.17;;
70675;SDS011;59069;52.242;20.900;2023-07-31T01:10:23;5.50;;;1.80;;
70675;SDS011;59069;52.242;20.900;2023-07-31T01:12:53;5.82;;;2.13;;
70675;SDS011;59069;52.242;20.900;2023-07-31T01:15:19;5.40;;;2.00;;
70675;SDS011;59069;52.242;20.900;2023-07-31T01:17:44;6.13;;;2.20;;
70675;SDS011;59069;52.242;20.900;2023-07-31T01:20:11;5.93;;;2.10;;
70675;SDS011;59069;52.242;20.900;2023-07-31T01:28:02;6.40;;;2.20;;
70675;SDS011;59069;52.242;20.900;2023-07-31T01:30:33;6.78;;;2.30;;
70675;SDS011;59069;52.242;20.900;2023-07-31T01:33:03;6.20;;;2.15;;
70675;SDS011;59069;52.242;20.900;2023-07-31T01:35:35;6.45;;;2.45;;
70675;SDS011;59069;52.242;20.900;2023-07-31T01:38:02;7.03;;;2.40;;
70675;SDS011;59069;52.242;20.900;2023-07-31T01:40:27;5.70;;;2.45;;
70675;SDS011;59069;52.242;20.900;2023-07-31T01:42:53;5.57;;;2.43;;
70675;SDS011;59069;52.242;20.900;2023-07-31T01:45:18;7.00;;;2.20;;
70675;SDS011;59069;52.242;20.900;2023-07-31T01:47:44;6.93;;;2.53;;
70675;SDS011;59069;52.242;20.900;2023-07-31T01:50:09;5.57;;;2.50;;
70675;SDS011;59069;52.242;20.900;2023-07-31T01:52:35;6.57;;;2.63;;
70675;SDS011;59069;52.242;20.900;2023-07-31T01:55:00;8.10;;;2.57;;
70675;SDS011;59069;52.242;20.900;2023-07-31T01:57:26;6.65;;;2.30;;
70675;SDS011;59069;52.242;20.900;2023-07-31T01:59:51;5.77;;;2.47;;
70675;SDS011;59069;52.242;20.900;2023-07-31T02:02:18;6.68;;;2.45;;
70675;SDS011;59069;52.242;20.900;2023-07-31T02:04:44;6.25;;;2.60;;
70675;SDS011;59069;52.242;20.900;2023-07-31T02:07:09;6.93;;;2.57;;
70675;SDS011;59069;52.242;20.900;2023-07-31T02:09:35;6.73;;;2.60;;
70675;SDS011;59069;52.242;20.900;2023-07-31T02:12:00;7.73;;;2.40;;
70675;SDS011;59069;52.242;20.900;2023-07-31T02:14:25;7.50;;;2.80;;
70675;SDS011;59069;52.242;20.900;2023-07-31T02:16:51;6.43;;;2.75;;
70675;SDS011;59069;52.242;20.900;2023-07-31T02:19:16;6.80;;;2.77;;
70675;SDS011;59069;52.242;20.900;2023-07-31T02:21:41;7.53;;;3.00;;
70675;SDS011;59069;52.242;20.900;2023-07-31T02:24:07;8.47;;;2.87;;
70675;SDS011;59069;52.242;20.900;2023-07-31T02:26:32;8.50;;;2.70;;
70675;SDS011;59069;52.242;20.900;2023-07-31T02:28:57;7.10;;;3.10;;
70675;SDS011;59069;52.242;20.900;2023-07-31T02:31:23;6.40;;;2.85;;
70675;SDS011;59069;52.242;20.900;2023-07-31T02:33:48;7.37;;;3.17;;
70675;SDS011;59069;52.242;20.900;2023-07-31T02:36:14;8.20;;;3.17;;
70675;SDS011;59069;52.242;20.900;2023-07-31T02:38:39;7.97;;;2.87;;
70675;SDS011;59069;52.242;20.900;2023-07-31T02:41:05;6.43;;;3.03;;
70675;SDS011;59069;52.242;20.900;2023-07-31T02:43:30;6.70;;;3.10;;
70675;SDS011;59069;52.242;20.900;2023-07-31T02:45:56;8.67;;;3.47;;
70675;SDS011;59069;52.242;20.900;2023-07-31T02:48:21;6.80;;;2.80;;
70675;SDS011;59069;52.242;20.900;2023-07-31T02:50:47;7.43;;;3.20;;
70675;SDS011;59069;52.242;20.900;2023-07-31T02:53:13;7.20;;;3.05;;
70675;SDS011;59069;52.242;20.900;2023-07-31T02:55:38;7.67;;;3.53;;
70675;SDS011;59069;52.242;20.900;2023-07-31T02:58:04;6.97;;;3.00;;
70675;SDS011;59069;52.242;20.900;2023-07-31T03:00:29;9.03;;;3.17;;
70675;SDS011;59069;52.242;20.900;2023-07-31T03:02:55;8.63;;;3.50;;
70675;SDS011;59069;52.242;20.900;2023-07-31T03:05:20;6.57;;;2.97;;
70675;SDS011;59069;52.242;20.900;2023-07-31T03:07:45;8.07;;;3.63;;
70675;SDS011;59069;52.242;20.900;2023-07-31T03:10:11;6.70;;;3.10;;
70675;SDS011;59069;52.242;20.900;2023-07-31T03:12:36;7.20;;;3.50;;
70675;SDS011;59069;52.242;20.900;2023-07-31T03:15:02;6.93;;;3.30;;
70675;SDS011;59069;52.242;20.900;2023-07-31T03:17:27;6.63;;;2.88;;
70675;SDS011;59069;52.242;20.900;2023-07-31T03:19:53;6.33;;;3.10;;
70675;SDS011;59069;52.242;20.900;2023-07-31T03:22:18;8.07;;;3.43;;
70675;SDS011;59069;52.242;20.900;2023-07-31T03:24:43;9.60;;;3.13;;
70675;SDS011;59069;52.242;20.900;2023-07-31T03:27:09;8.00;;;3.37;;
70675;SDS011;59069;52.242;20.900;2023-07-31T03:29:34;6.80;;;3.40;;
70675;SDS011;59069;52.242;20.900;2023-07-31T03:31:59;9.17;;;3.53;;
70675;SDS011;59069;52.242;20.900;2023-07-31T03:34:25;7.95;;;3.30;;
70675;SDS011;59069;52.242;20.900;2023-07-31T03:36:54;7.25;;;3.17;;
70675;SDS011;59069;52.242;20.900;2023-07-31T03:39:19;7.67;;;3.20;;
70675;SDS011;59069;52.242;20.900;2023-07-31T03:41:45;6.60;;;3.20;;
70675;SDS011;59069;52.242;20.900;2023-07-31T03:44:10;7.13;;;3.17;;
70675;SDS011;59069;52.242;20.900;2023-07-31T03:46:36;8.50;;;3.35;;
70675;SDS011;59069;52.242;20.900;2023-07-31T03:49:01;11.90;;;3.20;;
70675;SDS011;59069;52.242;20.900;2023-07-31T03:51:27;6.87;;;3.13;;
70675;SDS011;59069;52.242;20.900;2023-07-31T03:53:52;7.35;;;3.33;;
70675;SDS011;59069;52.242;20.900;2023-07-31T03:56:18;7.40;;;3.23;;
70675;SDS011;59069;52.242;20.900;2023-07-31T03:58:43;9.83;;;3.70;;
70675;SDS011;59069;52.242;20.900;2023-07-31T04:01:08;7.82;;;3.28;;
70675;SDS011;59069;52.242;20.900;2023-07-31T04:03:34;7.63;;;3.10;;
70675;SDS011;59069;52.242;20.900;2023-07-31T04:05:59;7.30;;;3.20;;
70675;SDS011;59069;52.242;20.900;2023-07-31T04:08:25;8.27;;;2.97;;
70675;SDS011;59069;52.242;20.900;2023-07-31T04:10:50;14.07;;;3.37;;
70675;SDS011;59069;52.242;20.900;2023-07-31T04:13:15;6.93;;;2.78;;
70675;SDS011;59069;52.242;20.900;2023-07-31T04:15:41;7.23;;;3.13;;
70675;SDS011;59069;52.242;20.900;2023-07-31T04:18:06;7.40;;;2.83;;
70675;SDS011;59069;52.242;20.900;2023-07-31T04:20:31;9.40;;;3.30;;
70675;SDS011;59069;52.242;20.900;2023-07-31T04:22:57;6.63;;;2.83;;
70675;SDS011;59069;52.242;20.900;2023-07-31T04:25:22;6.93;;;3.10;;
70675;SDS011;59069;52.242;20.900;2023-07-31T04:27:48;7.47;;;3.00;;
70675;SDS011;59069;52.242;20.900;2023-07-31T04:30:13;7.93;;;3.10;;
70675;SDS011;59069;52.242;20.900;2023-07-31T04:32:38;7.00;;;2.90;;
70675;SDS011;59069;52.242;20.900;2023-07-31T04:35:04;7.60;;;3.03;;
70675;SDS011;59069;52.242;20.900;2023-07-31T04:37:30;7.33;;;2.77;;
70675;SDS011;59069;52.242;20.900;2023-07-31T04:39:55;7.65;;;3.00;;
70675;SDS011;59069;52.242;20.900;2023-07-31T04:42:21;7.23;;;3.10;;
70675;SDS011;59069;52.242;20.900;2023-07-31T04:44:46;7.33;;;3.23;;
70675;SDS011;59069;52.242;20.900;2023-07-31T04:47:12;8.03;;;3.40;;
70675;SDS011;59069;52.242;20.900;2023-07-31T04:49:37;9.20;;;3.43;;
70675;SDS011;59069;52.242;20.900;2023-07-31T04:52:03;7.67;;;3.00;;
70675;SDS011;59069;52.242;20.900;2023-07-31T04:54:29;7.38;;;3.38;;
70675;SDS011;59069;52.242;20.900;2023-07-31T04:56:54;10.37;;;2.90;;
70675;SDS011;59069;52.242;20.900;2023-07-31T04:59:20;7.97;;;3.30;;
70675;SDS011;59069;52.242;20.900;2023-07-31T05:01:45;7.90;;;3.03;;
70675;SDS011;59069;52.242;20.900;2023-07-31T05:04:13;8.70;;;3.10;;
70675;SDS011;59069;52.242;20.900;2023-07-31T05:06:39;9.43;;;3.35;;
70675;SDS011;59069;52.242;20.900;2023-07-31T05:09:05;7.38;;;3.08;;
70675;SDS011;59069;52.242;20.900;2023-07-31T05:11:31;8.20;;;3.50;;
70675;SDS011;59069;52.242;20.900;2023-07-31T05:13:59;7.55;;;2.92;;
70675;SDS011;59069;52.242;20.900;2023-07-31T05:16:24;9.30;;;3.10;;
70675;SDS011;59069;52.242;20.900;2023-07-31T05:18:49;8.07;;;2.80;;
70675;SDS011;59069;52.242;20.900;2023-07-31T05:21:15;10.03;;;3.60;;
70675;SDS011;59069;52.242;20.900;2023-07-31T05:23:40;7.77;;;2.33;;
70675;SDS011;59069;52.242;20.900;2023-07-31T05:26:06;7.53;;;2.70;;
70675;SDS011;59069;52.242;20.900;2023-07-31T05:28:33;6.77;;;2.80;;
70675;SDS011;59069;52.242;20.900;2023-07-31T05:31:00;8.30;;;2.47;;
70675;SDS011;59069;52.242;20.900;2023-07-31T05:33:26;8.40;;;3.05;;
70675;SDS011;59069;52.242;20.900;2023-07-31T05:35:51;7.93;;;2.97;;
70675;SDS011;59069;52.242;20.900;2023-07-31T05:38:17;7.72;;;2.95;;
70675;SDS011;59069;52.242;20.900;2023-07-31T05:40:43;6.40;;;2.57;;
70675;SDS011;59069;52.242;20.900;2023-07-31T05:43:08;8.00;;;2.88;;
70675;SDS011;59069;52.242;20.900;2023-07-31T05:45:34;8.07;;;2.80;;
70675;SDS011;59069;52.242;20.900;2023-07-31T05:47:59;9.77;;;2.70;;
70675;SDS011;59069;52.242;20.900;2023-07-31T05:50:25;6.33;;;2.30;;
70675;SDS011;59069;52.242;20.900;2023-07-31T05:52:50;7.93;;;2.50;;
70675;SDS011;59069;52.242;20.900;2023-07-31T05:55:16;8.57;;;2.92;;
70675;SDS011;59069;52.242;20.900;2023-07-31T05:57:42;10.80;;;2.40;;
70675;SDS011;59069;52.242;20.900;2023-07-31T06:00:07;7.00;;;2.47;;
70675;SDS011;59069;52.242;20.900;2023-07-31T06:02:33;7.65;;;2.25;;
70675;SDS011;59069;52.242;20.900;2023-07-31T06:05:01;7.35;;;2.55;;
70675;SDS011;59069;52.242;20.900;2023-07-31T06:07:28;8.55;;;2.60;;
70675;SDS011;59069;52.242;20.900;2023-07-31T06:09:54;5.93;;;2.30;;
70675;SDS011;59069;52.242;20.900;2023-07-31T06:12:20;8.05;;;2.63;;
70675;SDS011;59069;52.242;20.900;2023-07-31T06:14:45;8.37;;;2.40;;
70675;SDS011;59069;52.242;20.900;2023-07-31T06:17:11;7.53;;;2.60;;
70675;SDS011;59069;52.242;20.900;2023-07-31T06:19:36;6.75;;;2.78;;
70675;SDS011;59069;52.242;20.900;2023-07-31T06:22:02;11.50;;;2.70;;
70675;SDS011;59069;52.242;20.900;2023-07-31T06:24:30;7.38;;;2.78;;
70675;SDS011;59069;52.242;20.900;2023-07-31T06:26:55;15.23;;;2.70;;
70675;SDS011;59069;52.242;20.900;2023-07-31T06:29:22;7.88;;;2.75;;
70675;SDS011;59069;52.242;20.900;2023-07-31T06:31:47;9.77;;;3.10;;
70675;SDS011;59069;52.242;20.900;2023-07-31T06:34:13;6.20;;;2.67;;
70675;SDS011;59069;52.242;20.900;2023-07-31T06:36:38;7.50;;;2.97;;
70675;SDS011;59069;52.242;20.900;2023-07-31T06:39:04;10.30;;;2.90;;
70675;SDS011;59069;52.242;20.900;2023-07-31T06:41:29;10.80;;;3.00;;
70675;SDS011;59069;52.242;20.900;2023-07-31T06:43:54;8.73;;;3.00;;
70675;SDS011;59069;52.242;20.900;2023-07-31T06:46:20;8.87;;;2.87;;
70675;SDS011;59069;52.242;20.900;2023-07-31T06:48:45;6.53;;;2.60;;
70675;SDS011;59069;52.242;20.900;2023-07-31T06:51:10;8.93;;;2.80;;
70675;SDS011;59069;52.242;20.900;2023-07-31T06:53:36;8.30;;;2.60;;
70675;SDS011;59069;52.242;20.900;2023-07-31T06:56:01;7.47;;;2.90;;
70675;SDS011;59069;52.242;20.900;2023-07-31T06:58:26;6.70;;;2.70;;
70675;SDS011;59069;52.242;20.900;2023-07-31T07:00:52;9.03;;;2.90;;
70675;SDS011;59069;52.242;20.900;2023-07-31T07:03:20;7.40;;;2.87;;
70675;SDS011;59069;52.242;20.900;2023-07-31T07:05:45;8.45;;;2.95;;
70675;SDS011;59069;52.242;20.900;2023-07-31T07:08:11;8.53;;;2.73;;
70675;SDS011;59069;52.242;20.900;2023-07-31T07:10:39;6.50;;;2.65;;
70675;SDS011;59069;52.242;20.900;2023-07-31T07:13:04;7.10;;;2.90;;
70675;SDS011;59069;52.242;20.900;2023-07-31T07:15:30;8.05;;;2.55;;
70675;SDS011;59069;52.242;20.900;2023-07-31T07:17:55;10.00;;;3.10;;
70675;SDS011;59069;52.242;20.900;2023-07-31T07:20:21;7.77;;;2.73;;
70675;SDS011;59069;52.242;20.900;2023-07-31T07:22:46;7.97;;;2.90;;
70675;SDS011;59069;52.242;20.900;2023-07-31T07:25:12;7.30;;;2.85;;
70675;SDS011;59069;52.242;20.900;2023-07-31T07:27:37;7.60;;;2.70;;
70675;SDS011;59069;52.242;20.900;2023-07-31T07:30:02;8.97;;;2.53;;
70675;SDS011;59069;52.242;20.900;2023-07-31T07:32:28;8.02;;;2.53;;
70675;SDS011;59069;52.242;20.900;2023-07-31T07:34:54;7.33;;;2.93;;
70675;SDS011;59069;52.242;20.900;2023-07-31T07:37:20;7.75;;;2.72;;
70675;SDS011;59069;52.242;20.900;2023-07-31T07:39:45;10.17;;;2.93;;
70675;SDS011;59069;52.242;20.900;2023-07-31T07:42:11;7.50;;;2.50;;
70675;SDS011;59069;52.242;20.900;2023-07-31T07:44:36;9.60;;;3.10;;
70675;SDS011;59069;52.242;20.900;2023-07-31T07:47:02;8.02;;;2.63;;
70675;SDS011;59069;52.242;20.900;2023-07-31T07:49:28;7.75;;;3.05;;
70675;SDS011;59069;52.242;20.900;2023-07-31T07:51:53;7.60;;;2.70;;
70675;SDS011;59069;52.242;20.900;2023-07-31T07:54:19;8.03;;;2.77;;
70675;SDS011;59069;52.242;20.900;2023-07-31T07:56:48;8.88;;;3.13;;
70675;SDS011;59069;52.242;20.900;2023-07-31T07:59:13;8.17;;;2.80;;
70675;SDS011;59069;52.242;20.900;2023-07-31T08:01:39;7.93;;;2.63;;
70675;SDS011;59069;52.242;20.900;2023-07-31T08:04:04;7.50;;;2.75;;
70675;SDS011;59069;52.242;20.900;2023-07-31T08:06:29;7.60;;;2.70;;
70675;SDS011;59069;52.242;20.900;2023-07-31T08:08:55;9.33;;;2.40;;
70675;SDS011;59069;52.242;20.900;2023-07-31T08:11:20;8.10;;;3.00;;
70675;SDS011;59069;52.242;20.900;2023-07-31T08:13:48;7.57;;;2.80;;
70675;SDS011;59069;52.242;20.900;2023-07-31T08:16:14;8.73;;;2.58;;
70675;SDS011;59069;52.242;20.900;2023-07-31T08:18:39;9.93;;;2.93;;
70675;SDS011;59069;52.242;20.900;2023-07-31T08:21:05;6.78;;;2.50;;
70675;SDS011;59069;52.242;20.900;2023-07-31T08:23:30;7.97;;;2.40;;
70675;SDS011;59069;52.242;20.900;2023-07-31T08:25:56;9.03;;;2.47;;
70675;SDS011;59069;52.242;20.900;2023-07-31T08:28:21;7.53;;;2.45;;
70675;SDS011;59069;52.242;20.900;2023-07-31T08:30:47;6.93;;;2.67;;
70675;SDS011;59069;52.242;20.900;2023-07-31T08:33:12;6.97;;;2.73;;
70675;SDS011;59069;52.242;20.900;2023-07-31T08:35:37;6.87;;;2.70;;
70675;SDS011;59069;52.242;20.900;2023-07-31T08:38:03;7.63;;;2.40;;
70675;SDS011;59069;52.242;20.900;2023-07-31T08:40:28;6.43;;;2.20;;
70675;SDS011;59069;52.242;20.900;2023-07-31T08:42:54;7.77;;;2.20;;
70675;SDS011;59069;52.242;20.900;2023-07-31T08:45:27;7.32;;;2.60;;
70675;SDS011;59069;52.242;20.900;2023-07-31T08:47:53;10.60;;;2.75;;
70675;SDS011;59069;52.242;20.900;2023-07-31T08:50:19;8.63;;;2.30;;
70675;SDS011;59069;52.242;20.900;2023-07-31T08:52:45;8.93;;;2.70;;
70675;SDS011;59069;52.242;20.900;2023-07-31T08:55:12;10.23;;;2.60;;
70675;SDS011;59069;52.242;20.900;2023-07-31T08:57:38;6.47;;;2.40;;
70675;SDS011;59069;52.242;20.900;2023-07-31T09:00:04;9.55;;;2.65;;
70675;SDS011;59069;52.242;20.900;2023-07-31T09:02:54;6.15;;;2.30;;
70675;SDS011;59069;52.242;20.900;2023-07-31T09:05:21;8.05;;;2.25;;
70675;SDS011;59069;52.242;20.900;2023-07-31T09:07:47;7.63;;;2.00;;
70675;SDS011;59069;52.242;20.900;2023-07-31T09:10:13;8.07;;;2.60;;
70675;SDS011;59069;52.242;20.900;2023-07-31T09:12:38;9.83;;;2.73;;
70675;SDS011;59069;52.242;20.900;2023-07-31T09:15:04;7.97;;;2.30;;
70675;SDS011;59069;52.242;20.900;2023-07-31T09:17:31;6.70;;;2.55;;
70675;SDS011;59069;52.242;20.900;2023-07-31T09:19:57;7.57;;;2.30;;
70675;SDS011;59069;52.242;20.900;2023-07-31T09:22:37;7.82;;;2.38;;
70675;SDS011;59069;52.242;20.900;2023-07-31T09:30:18;8.27;;;2.50;;
70675;SDS011;59069;52.242;20.900;2023-07-31T09:32:44;6.60;;;2.23;;
70675;SDS011;59069;52.242;20.900;2023-07-31T09:35:13;7.87;;;2.80;;
70675;SDS011;59069;52.242;20.900;2023-07-31T09:37:49;5.70;;;2.05;;
70675;SDS011;59069;52.242;20.900;2023-07-31T09:40:29;6.57;;;2.20;;
70675;SDS011;59069;52.242;20.900;2023-07-31T09:43:02;7.43;;;2.50;;
70675;SDS011;59069;52.242;20.900;2023-07-31T09:45:36;5.80;;;1.98;;
70675;SDS011;59069;52.242;20.900;2023-07-31T09:48:02;6.20;;;2.37;;
70675;SDS011;59069;52.242;20.900;2023-07-31T09:50:31;8.32;;;2.90;;
70675;SDS011;59069;52.242;20.900;2023-07-31T09:52:56;6.53;;;1.83;;
70675;SDS011;59069;52.242;20.900;2023-07-31T09:55:22;7.05;;;1.90;;
70675;SDS011;59069;52.242;20.900;2023-07-31T09:57:48;8.77;;;1.70;;
70675;SDS011;59069;52.242;20.900;2023-07-31T10:00:15;8.25;;;2.15;;
70675;SDS011;59069;52.242;20.900;2023-07-31T10:02:45;6.53;;;1.80;;
70675;SDS011;59069;52.242;20.900;2023-07-31T10:05:15;6.07;;;2.00;;
70675;SDS011;59069;52.242;20.900;2023-07-31T10:07:42;5.45;;;1.83;;
70675;SDS011;59069;52.242;20.900;2023-07-31T10:10:10;8.98;;;1.70;;
70675;SDS011;59069;52.242;20.900;2023-07-31T10:12:36;6.57;;;1.75;;
70675;SDS011;59069;52.242;20.900;2023-07-31T10:15:03;4.50;;;1.50;;
70675;SDS011;59069;52.242;20.900;2023-07-31T10:17:29;6.20;;;1.63;;
70675;SDS011;59069;52.242;20.900;2023-07-31T10:19:56;6.50;;;1.52;;
70675;SDS011;59069;52.242;20.900;2023-07-31T10:22:26;7.15;;;1.60;;
70675;SDS011;59069;52.242;20.900;2023-07-31T10:24:52;7.25;;;1.90;;
70675;SDS011;59069;52.242;20.900;2023-07-31T10:27:19;5.63;;;1.70;;
70675;SDS011;59069;52.242;20.900;2023-07-31T10:29:45;7.13;;;1.40;;
70675;SDS011;59069;52.242;20.900;2023-07-31T10:32:13;5.10;;;1.50;;
70675;SDS011;59069;52.242;20.900;2023-07-31T10:34:40;5.70;;;1.60;;
70675;SDS011;59069;52.242;20.900;2023-07-31T10:39:56;5.07;;;1.40;;
70675;SDS011;59069;52.242;20.900;2023-07-31T10:42:28;5.90;;;1.40;;
70675;SDS011;59069;52.242;20.900;2023-07-31T10:45:02;12.98;;;1.80;;
70675;SDS011;59069;52.242;20.900;2023-07-31T10:47:30;5.67;;;1.23;;
70675;SDS011;59069;52.242;20.900;2023-07-31T10:52:48;6.07;;;1.40;;
70675;SDS011;59069;52.242;20.900;2023-07-31T10:57:49;5.80;;;1.40;;
70675;SDS011;59069;52.242;20.900;2023-07-31T11:08:31;6.72;;;1.30;;
70675;SDS011;59069;52.242;20.900;2023-07-31T11:15:54;4.97;;;1.50;;
70675;SDS011;59069;52.242;20.900;2023-07-31T11:18:20;6.03;;;1.37;;
70675;SDS011;59069;52.242;20.900;2023-07-31T11:20:45;6.47;;;1.53;;
70675;SDS011;59069;52.242;20.900;2023-07-31T11:23:11;6.18;;;1.17;;
70675;SDS011;59069;52.242;20.900;2023-07-31T11:25:37;6.17;;;1.40;;
70675;SDS011;59069;52.242;20.900;2023-07-31T11:28:05;7.22;;;1.60;;
70675;SDS011;59069;52.242;20.900;2023-07-31T11:30:32;7.93;;;1.50;;
70675;SDS011;59069;52.242;20.900;2023-07-31T11:32:58;6.53;;;1.30;;
70675;SDS011;59069;52.242;20.900;2023-07-31T11:35:25;6.15;;;1.40;;
70675;SDS011;59069;52.242;20.900;2023-07-31T11:37:51;4.87;;;1.40;;
70675;SDS011;59069;52.242;20.900;2023-07-31T11:40:17;7.83;;;1.77;;
70675;SDS011;59069;52.242;20.900;2023-07-31T11:42:43;9.27;;;1.70;;
70675;SDS011;59069;52.242;20.900;2023-07-31T11:45:09;5.57;;;1.20;;
70675;SDS011;59069;52.242;20.900;2023-07-31T11:47:35;7.90;;;1.42;;
70675;SDS011;59069;52.242;20.900;2023-07-31T11:50:05;6.57;;;1.58;;
70675;SDS011;59069;52.242;20.900;2023-07-31T11:52:32;6.43;;;1.50;;
70675;SDS011;59069;52.242;20.900;2023-07-31T11:55:00;4.80;;;1.25;;
70675;SDS011;59069;52.242;20.900;2023-07-31T11:57:26;4.82;;;1.40;;
70675;SDS011;59069;52.242;20.900;2023-07-31T11:59:53;7.65;;;1.83;;
70675;SDS011;59069;52.242;20.900;2023-07-31T12:02:19;11.90;;;1.53;;
70675;SDS011;59069;52.242;20.900;2023-07-31T12:04:46;5.82;;;1.52;;
70675;SDS011;59069;52.242;20.900;2023-07-31T12:07:12;7.15;;;1.50;;
70675;SDS011;59069;52.242;20.900;2023-07-31T12:09:37;11.57;;;1.80;;
70675;SDS011;59069;52.242;20.900;2023-07-31T12:12:03;8.20;;;1.95;;
70675;SDS011;59069;52.242;20.900;2023-07-31T12:14:33;6.20;;;1.57;;
70675;SDS011;59069;52.242;20.900;2023-07-31T12:17:00;6.00;;;1.80;;
70675;SDS011;59069;52.242;20.900;2023-07-31T12:19:29;5.47;;;1.50;;
70675;SDS011;59069;52.242;20.900;2023-07-31T12:21:58;7.80;;;1.48;;
70675;SDS011;59069;52.242;20.900;2023-07-31T12:24:24;5.40;;;1.60;;
70675;SDS011;59069;52.242;20.900;2023-07-31T12:26:50;9.10;;;1.85;;
70675;SDS011;59069;52.242;20.900;2023-07-31T12:29:17;7.53;;;1.75;;
70675;SDS011;59069;52.242;20.900;2023-07-31T12:31:43;9.13;;;1.80;;
70675;SDS011;59069;52.242;20.900;2023-07-31T12:34:18;11.33;;;2.03;;
70675;SDS011;59069;52.242;20.900;2023-07-31T12:36:46;7.03;;;1.55;;
70675;SDS011;59069;52.242;20.900;2023-07-31T12:39:13;6.88;;;1.60;;
70675;SDS011;59069;52.242;20.900;2023-07-31T12:41:39;6.15;;;1.50;;
70675;SDS011;59069;52.242;20.900;2023-07-31T12:44:05;5.70;;;1.80;;
70675;SDS011;59069;52.242;20.900;2023-07-31T12:46:30;6.37;;;1.90;;
70675;SDS011;59069;52.242;20.900;2023-07-31T12:48:56;5.63;;;2.15;;
70675;SDS011;59069;52.242;20.900;2023-07-31T12:51:21;5.97;;;1.90;;
70675;SDS011;59069;52.242;20.900;2023-07-31T12:53:47;7.63;;;2.13;;
70675;SDS011;59069;52.242;20.900;2023-07-31T12:56:12;8.73;;;2.00;;
70675;SDS011;59069;52.242;20.900;2023-07-31T12:58:37;6.05;;;1.73;;
70675;SDS011;59069;52.242;20.900;2023-07-31T13:01:03;6.57;;;1.80;;
70675;SDS011;59069;52.242;20.900;2023-07-31T13:03:28;8.70;;;1.97;;
70675;SDS011;59069;52.242;20.900;2023-07-31T13:05:54;7.07;;;2.20;;
70675;SDS011;59069;52.242;20.900;2023-07-31T13:08:20;7.03;;;1.87;;
70675;SDS011;59069;52.242;20.900;2023-07-31T13:10:45;6.75;;;1.95;;
70675;SDS011;59069;52.242;20.900;2023-07-31T13:13:11;7.93;;;2.30;;
70675;SDS011;59069;52.242;20.900;2023-07-31T13:15:36;9.67;;;2.10;;
70675;SDS011;59069;52.242;20.900;2023-07-31T13:18:02;6.53;;;1.70;;
70675;SDS011;59069;52.242;20.900;2023-07-31T13:20:27;11.75;;;2.25;;
70675;SDS011;59069;52.242;20.900;2023-07-31T13:22:52;7.80;;;1.90;;
70675;SDS011;59069;52.242;20.900;2023-07-31T13:25:18;7.80;;;1.70;;
70675;SDS011;59069;52.242;20.900;2023-07-31T13:27:43;7.63;;;1.70;;
70675;SDS011;59069;52.242;20.900;2023-07-31T13:30:09;6.72;;;1.70;;
70675;SDS011;59069;52.242;20.900;2023-07-31T13:32:34;11.10;;;1.97;;
70675;SDS011;59069;52.242;20.900;2023-07-31T13:35:04;16.50;;;2.20;;
70675;SDS011;59069;52.242;20.900;2023-07-31T13:37:33;5.22;;;1.65;;
70675;SDS011;59069;52.242;20.900;2023-07-31T13:39:58;6.63;;;1.60;;
70675;SDS011;59069;52.242;20.900;2023-07-31T13:42:24;5.63;;;1.57;;
70675;SDS011;59069;52.242;20.900;2023-07-31T13:44:49;7.60;;;1.80;;
70675;SDS011;59069;52.242;20.900;2023-07-31T13:47:14;5.80;;;1.60;;
70675;SDS011;59069;52.242;20.900;2023-07-31T13:49:40;9.10;;;1.77;;
70675;SDS011;59069;52.242;20.900;2023-07-31T13:52:06;12.32;;;2.25;;
70675;SDS011;59069;52.242;20.900;2023-07-31T13:54:32;8.23;;;1.90;;
70675;SDS011;59069;52.242;20.900;2023-07-31T13:56:57;5.00;;;1.60;;
70675;SDS011;59069;52.242;20.900;2023-07-31T13:59:23;6.80;;;2.00;;
70675;SDS011;59069;52.242;20.900;2023-07-31T14:01:48;7.82;;;1.80;;
70675;SDS011;59069;52.242;20.900;2023-07-31T14:04:15;5.93;;;1.50;;
70675;SDS011;59069;52.242;20.900;2023-07-31T14:06:40;6.55;;;1.55;;
70675;SDS011;59069;52.242;20.900;2023-07-31T14:09:06;5.90;;;1.60;;
70675;SDS011;59069;52.242;20.900;2023-07-31T14:11:31;8.50;;;2.20;;
70675;SDS011;59069;52.242;20.900;2023-07-31T14:13:57;5.28;;;1.60;;
70675;SDS011;59069;52.242;20.900;2023-07-31T14:16:23;7.20;;;1.77;;
70675;SDS011;59069;52.242;20.900;2023-07-31T14:18:48;5.75;;;1.92;;
70675;SDS011;59069;52.242;20.900;2023-07-31T14:21:14;7.17;;;1.97;;
70675;SDS011;59069;52.242;20.900;2023-07-31T14:23:39;6.03;;;1.93;;
70675;SDS011;59069;52.242;20.900;2023-07-31T14:26:05;5.55;;;1.60;;
70675;SDS011;59069;52.242;20.900;2023-07-31T14:28:31;6.00;;;1.80;;
70675;SDS011;59069;52.242;20.900;2023-07-31T14:30:56;6.90;;;1.88;;
70675;SDS011;59069;52.242;20.900;2023-07-31T14:33:22;8.93;;;2.03;;
70675;SDS011;59069;52.242;20.900;2023-07-31T14:35:47;7.43;;;1.70;;
70675;SDS011;59069;52.242;20.900;2023-07-31T14:38:12;9.93;;;1.97;;
70675;SDS011;59069;52.242;20.900;2023-07-31T14:40:38;6.47;;;1.73;;
70675;SDS011;59069;52.242;20.900;2023-07-31T14:43:03;8.90;;;1.90;;
70675;SDS011;59069;52.242;20.900;2023-07-31T14:45:29;7.07;;;1.70;;
70675;SDS011;59069;52.242;20.900;2023-07-31T14:47:54;7.93;;;1.90;;
70675;SDS011;59069;52.242;20.900;2023-07-31T14:50:20;7.05;;;1.85;;
70675;SDS011;59069;52.242;20.900;2023-07-31T14:52:47;6.27;;;1.70;;
70675;SDS011;59069;52.242;20.900;2023-07-31T14:55:13;7.20;;;1.67;;
70675;SDS011;59069;52.242;20.900;2023-07-31T14:57:38;7.10;;;1.85;;
70675;SDS011;59069;52.242;20.900;2023-07-31T15:00:04;8.23;;;1.60;;